Time;durP1;ratioP1;P1;durP2;ratioP2;P2;SDS_P1;SDS_P2;PMS_P1;PMS_P2;Temp;Humidity;BMP_temperature;BMP_pressure;BME280_temperature;BME280_humidity;BME280_pressure;Samples;Min_cycle;Max_cycle;Signal;HPM_P1;HPM_P2
2021/04/15 00:02:17;;;;;;;16.90;6.97;;;;;;;;;;6212635;23;20211;-91
2021/04/15 00:05:25;;;;;;;16.17;7.50;;;;;;;;;;6210072;23;20191;-90
2021/04/15 00:08:29;;;;;;;16.47;7.47;;;;;;;;;;6211259;23;20216;-90
2021/04/15 00:11:35;;;;;;;12.47;6.63;;;;;;;;;;6211288;23;20171;-90
2021/04/15 00:14:39;;;;;;;15.23;6.67;;;;;;;;;;6211396;23;20222;-91
2021/04/15 00:17:44;;;;;;;14.23;7.07;;;;;;;;;;6211558;23;20251;-91
2021/04/15 00:20:49;;;;;;;17.70;6.50;;;;;;;;;;6210778;23;20182;-91
2021/04/15 00:23:54;;;;;;;17.37;7.27;;;;;;;;;;6210320;23;20214;-92
2021/04/15 00:26:59;;;;;;;16.17;7.37;;;;;;;;;;6211306;23;20195;-92
2021/04/15 00:30:05;;;;;;;16.20;7.50;;;;;;;;;;6208976;23;20230;-91
2021/04/15 00:33:11;;;;;;;16.07;8.20;;;;;;;;;;6209665;23;20627;-91
2021/04/15 00:36:16;;;;;;;50.03;22.83;;;;;;;;;;6208814;23;20214;-91
2021/04/15 00:39:20;;;;;;;23.27;9.90;;;;;;;;;;6208783;23;20167;-89
2021/04/15 00:42:25;;;;;;;15.23;8.07;;;;;;;;;;6210785;23;20234;-89
2021/04/15 00:45:31;;;;;;;18.37;7.57;;;;;;;;;;6210069;23;20232;-89
2021/04/15 00:48:37;;;;;;;17.93;7.77;;;;;;;;;;6211681;23;20175;-91
2021/04/15 00:51:45;;;;;;;16.33;8.30;;;;;;;;;;6211506;23;20234;-91
2021/04/15 00:54:51;;;;;;;17.23;8.03;;;;;;;;;;6211508;23;20746;-92
2021/04/15 00:57:56;;;;;;;16.67;8.00;;;;;;;;;;6209965;23;20187;-91
2021/04/15 01:01:01;;;;;;;19.00;8.57;;;;;;;;;;6210695;23;20195;-92
2021/04/15 01:04:06;;;;;;;17.57;7.70;;;;;;;;;;6210834;22;20179;-89
2021/04/15 01:07:11;;;;;;;14.60;7.57;;;;;;;;;;6210530;23;20182;-89
2021/04/15 01:10:16;;;;;;;16.13;7.23;;;;;;;;;;6209986;23;20283;-90
2021/04/15 01:13:33;;;;;;;15.37;7.30;;;;;;;;;;6211276;23;20171;-92
2021/04/15 01:16:41;;;;;;;16.40;7.77;;;;;;;;;;6210604;23;20166;-89
2021/04/15 01:20:06;;;;;;;13.70;6.53;;;;;;;;;;6212198;22;20186;-89
2021/04/15 01:23:15;;;;;;;14.53;7.63;;;;;;;;;;6212568;23;20220;-87
2021/04/15 01:26:36;;;;;;;14.63;7.33;;;;;;;;;;6214307;23;20215;-90
2021/04/15 01:29:48;;;;;;;18.33;7.37;;;;;;;;;;6213421;23;20194;-90
2021/04/15 01:32:56;;;;;;;14.57;7.30;;;;;;;;;;6213732;22;20183;-89
2021/04/15 01:36:03;;;;;;;13.27;6.93;;;;;;;;;;6214000;22;20152;-89
2021/04/15 01:39:12;;;;;;;13.50;6.73;;;;;;;;;;6214030;23;20167;-91
2021/04/15 01:42:20;;;;;;;18.33;7.87;;;;;;;;;;6214349;23;20171;-89
2021/04/15 01:45:26;;;;;;;18.93;7.97;;;;;;;;;;6213094;23;20162;-89
2021/04/15 01:48:34;;;;;;;16.20;7.77;;;;;;;;;;6214213;23;20216;-90
2021/04/15 01:51:43;;;;;;;18.57;7.90;;;;;;;;;;6214682;22;20167;-90
2021/04/15 01:54:50;;;;;;;18.30;8.00;;;;;;;;;;6215273;23;20178;-88
2021/04/15 01:57:59;;;;;;;20.20;8.10;;;;;;;;;;6214776;23;20520;-89
2021/04/15 02:01:08;;;;;;;16.27;7.57;;;;;;;;;;6214033;23;20552;-88
2021/04/15 02:04:14;;;;;;;18.57;8.30;;;;;;;;;;6212848;22;20156;-89
2021/04/15 02:07:20;;;;;;;17.70;7.67;;;;;;;;;;6213182;22;20275;-90
2021/04/15 02:10:25;;;;;;;16.07;7.77;;;;;;;;;;6212702;22;20226;-91
2021/04/15 02:13:32;;;;;;;14.83;7.57;;;;;;;;;;6213382;23;20186;-90
2021/04/15 02:16:39;;;;;;;18.30;8.03;;;;;;;;;;6212299;23;20814;-90
2021/04/15 02:19:45;;;;;;;13.10;7.30;;;;;;;;;;6213235;22;20195;-89
2021/04/15 02:22:54;;;;;;;17.57;7.50;;;;;;;;;;6215974;22;20166;-90
2021/04/15 02:26:02;;;;;;;16.43;7.80;;;;;;;;;;6216766;22;20156;-89
2021/04/15 02:29:09;;;;;;;17.60;7.77;;;;;;;;;;6216410;22;20266;-90
2021/04/15 02:32:18;;;;;;;17.20;8.20;;;;;;;;;;6216215;23;20544;-90
2021/04/15 02:35:24;;;;;;;19.93;8.73;;;;;;;;;;6215063;23;20183;-90
2021/04/15 02:38:34;;;;;;;25.83;8.33;;;;;;;;;;6213292;23;20304;-89
2021/04/15 02:41:40;;;;;;;16.37;8.03;;;;;;;;;;6212051;23;20214;-89
2021/04/15 02:44:48;;;;;;;24.30;8.67;;;;;;;;;;6213007;23;20167;-90
2021/04/15 02:47:56;;;;;;;18.03;8.27;;;;;;;;;;6212060;23;20623;-91
2021/04/15 02:51:02;;;;;;;19.90;8.17;;;;;;;;;;6212234;23;20175;-90
2021/04/15 02:54:10;;;;;;;20.63;8.20;;;;;;;;;;6210871;23;20190;-89
2021/04/15 02:57:16;;;;;;;19.57;8.07;;;;;;;;;;6212315;23;20183;-89
2021/04/15 03:00:22;;;;;;;19.10;8.37;;;;;;;;;;6211730;23;20163;-90
2021/04/15 03:03:30;;;;;;;23.43;9.17;;;;;;;;;;6211737;23;20159;-91
2021/04/15 03:06:36;;;;;;;17.00;7.47;;;;;;;;;;6210991;23;20194;-90
2021/04/15 03:09:41;;;;;;;18.90;7.20;;;;;;;;;;6211650;22;20226;-89
2021/04/15 03:12:47;;;;;;;20.87;7.60;;;;;;;;;;6213384;23;20151;-89
2021/04/15 03:15:53;;;;;;;17.30;7.70;;;;;;;;;;6214106;23;20179;-89
2021/04/15 03:19:01;;;;;;;22.13;9.20;;;;;;;;;;6211992;23;20209;-91
2021/04/15 03:22:11;;;;;;;20.07;7.90;;;;;;;;;;6212577;23;20159;-88
2021/04/15 03:25:16;;;;;;;18.83;8.10;;;;;;;;;;6212461;23;20228;-89
2021/04/15 03:28:23;;;;;;;18.27;8.33;;;;;;;;;;6212030;22;20155;-88
2021/04/15 03:31:30;;;;;;;19.33;8.43;;;;;;;;;;6211720;23;20199;-89
2021/04/15 03:34:40;;;;;;;22.13;8.80;;;;;;;;;;6210697;23;20210;-89
2021/04/15 03:37:47;;;;;;;23.33;9.23;;;;;;;;;;6212275;22;20167;-88
2021/04/15 03:40:54;;;;;;;21.43;9.07;;;;;;;;;;6210103;23;20151;-88
2021/04/15 03:44:01;;;;;;;26.43;9.87;;;;;;;;;;6210922;23;20231;-90
2021/04/15 03:47:07;;;;;;;21.57;9.47;;;;;;;;;;6211345;23;20510;-91
2021/04/15 03:50:15;;;;;;;21.57;8.93;;;;;;;;;;6210290;23;20191;-91
2021/04/15 03:53:22;;;;;;;21.47;9.93;;;;;;;;;;6211446;23;20191;-89
2021/04/15 03:56:29;;;;;;;20.07;9.00;;;;;;;;;;6210831;23;20234;-89
2021/04/15 03:59:44;;;;;;;26.40;10.00;;;;;;;;;;6230826;23;20195;-89
2021/04/15 04:02:55;;;;;;;19.73;8.50;;;;;;;;;;6195932;23;20212;-89
2021/04/15 04:06:03;;;;;;;24.97;9.67;;;;;;;;;;6211829;23;20167;-90
2021/04/15 04:09:13;;;;;;;21.50;9.00;;;;;;;;;;6211748;23;20210;-90
2021/04/15 04:12:22;;;;;;;20.77;9.07;;;;;;;;;;6211554;23;20175;-89
2021/04/15 04:15:28;;;;;;;27.17;9.47;;;;;;;;;;6211827;23;20187;-91
2021/04/15 04:18:40;;;;;;;16.00;7.53;;;;;;;;;;6209091;23;20171;-89
2021/04/15 04:21:49;;;;;;;18.60;7.97;;;;;;;;;;6210124;23;20244;-90
2021/04/15 04:24:57;;;;;;;24.33;9.40;;;;;;;;;;6209847;23;20167;-89
2021/04/15 04:28:07;;;;;;;17.57;8.87;;;;;;;;;;6211323;23;20191;-90
2021/04/15 04:31:17;;;;;;;23.13;9.07;;;;;;;;;;6209038;23;20164;-90
2021/04/15 04:34:23;;;;;;;18.60;9.07;;;;;;;;;;6210831;23;20167;-90
2021/04/15 04:37:31;;;;;;;18.70;9.03;;;;;;;;;;6212816;23;20220;-89
2021/04/15 04:40:37;;;;;;;18.87;9.40;;;;;;;;;;6213433;23;20152;-90
2021/04/15 04:43:44;;;;;;;24.83;8.90;;;;;;;;;;6213286;23;20175;-91
2021/04/15 04:46:51;;;;;;;19.23;8.37;;;;;;;;;;6212650;23;20159;-91
2021/04/15 04:49:58;;;;;;;20.23;9.13;;;;;;;;;;6212972;22;20191;-90
2021/04/15 04:53:04;;;;;;;22.23;8.73;;;;;;;;;;6212387;23;20193;-89
2021/04/15 04:56:27;;;;;;;23.57;9.20;;;;;;;;;;6209587;23;20175;-88
2021/04/15 04:59:34;;;;;;;20.17;9.23;;;;;;;;;;6209148;23;20167;-92
2021/04/15 05:02:39;;;;;;;19.67;9.43;;;;;;;;;;6208434;23;20298;-91
2021/04/15 05:05:45;;;;;;;25.33;10.07;;;;;;;;;;6210156;23;20278;-89
2021/04/15 05:08:56;;;;;;;20.40;9.40;;;;;;;;;;6207992;23;20235;-91
2021/04/15 05:12:01;;;;;;;21.20;9.43;;;;;;;;;;6208014;23;20175;-91
2021/04/15 05:15:07;;;;;;;20.90;8.93;;;;;;;;;;6208386;22;20578;-89
2021/04/15 05:18:14;;;;;;;23.50;8.93;;;;;;;;;;6210170;23;20179;-92
2021/04/15 05:21:24;;;;;;;26.97;10.20;;;;;;;;;;6210165;23;20585;-90
2021/04/15 05:24:33;;;;;;;19.73;8.77;;;;;;;;;;6209420;23;20203;-90
2021/04/15 05:27:40;;;;;;;21.03;9.93;;;;;;;;;;6209337;23;20171;-88
2021/04/15 05:30:46;;;;;;;24.67;9.90;;;;;;;;;;6208848;23;20217;-89
2021/04/15 05:33:51;;;;;;;22.67;9.83;;;;;;;;;;6207460;22;20214;-90
2021/04/15 05:36:57;;;;;;;17.90;8.37;;;;;;;;;;6209995;23;20167;-89
2021/04/15 05:40:02;;;;;;;23.07;9.07;;;;;;;;;;6210407;23;20686;-89
2021/04/15 05:43:22;;;;;;;24.53;10.00;;;;;;;;;;6211583;23;20187;-90
2021/04/15 05:46:29;;;;;;;20.23;10.60;;;;;;;;;;6227207;23;20441;-89
2021/04/15 05:49:40;;;;;;;20.17;9.03;;;;;;;;;;6229297;23;20187;-90
2021/04/15 05:52:46;;;;;;;16.60;8.00;;;;;;;;;;6210065;23;20249;-90
2021/04/15 05:55:57;;;;;;;19.63;7.87;;;;;;;;;;6211629;23;20550;-90
2021/04/15 05:59:07;;;;;;;14.47;7.47;;;;;;;;;;6212490;23;20205;-88
2021/04/15 06:02:20;;;;;;;15.30;7.40;;;;;;;;;;6212627;23;20286;-90
2021/04/15 06:05:26;;;;;;;14.70;7.37;;;;;;;;;;6212232;23;20561;-88
2021/04/15 06:08:34;;;;;;;21.07;7.57;;;;;;;;;;6213046;23;20179;-89
2021/04/15 06:11:51;;;;;;;21.40;7.87;;;;;;;;;;6213549;23;20203;-89
2021/04/15 06:14:58;;;;;;;16.60;6.33;;;;;;;;;;6210432;23;20163;-89
2021/04/15 06:18:06;;;;;;;16.17;6.97;;;;;;;;;;6213071;23;20170;-90
2021/04/15 06:21:16;;;;;;;21.23;6.83;;;;;;;;;;6212402;23;20279;-91
2021/04/15 06:24:23;;;;;;;18.63;7.37;;;;;;;;;;6211209;23;20206;-89
2021/04/15 06:27:29;;;;;;;14.13;6.77;;;;;;;;;;6210622;23;20187;-90
2021/04/15 06:30:35;;;;;;;26.50;8.10;;;;;;;;;;6212919;23;20259;-88
2021/04/15 06:33:41;;;;;;;14.93;6.60;;;;;;;;;;6213526;22;20587;-89
2021/04/15 06:36:49;;;;;;;19.47;7.03;;;;;;;;;;6215225;23;20622;-89
2021/04/15 06:40:00;;;;;;;30.60;8.67;;;;;;;;;;6212864;23;20175;-89
2021/04/15 06:43:13;;;;;;;17.47;5.93;;;;;;;;;;6209980;23;20223;-88
2021/04/15 06:46:26;;;;;;;11.40;6.37;;;;;;;;;;6210147;22;20235;-89
2021/04/15 06:49:36;;;;;;;25.10;7.90;;;;;;;;;;6211561;22;20195;-89
2021/04/15 06:52:47;;;;;;;13.00;6.33;;;;;;;;;;6214158;23;20516;-90
2021/04/15 06:56:02;;;;;;;16.43;6.77;;;;;;;;;;6211959;23;20238;-89
2021/04/15 06:59:22;;;;;;;16.10;6.43;;;;;;;;;;6212675;23;20598;-89
2021/04/15 07:02:42;;;;;;;16.35;6.50;;;;;;;;;;6212232;23;20175;-90
2021/04/15 07:05:48;;;;;;;18.17;5.97;;;;;;;;;;6210966;23;20156;-88
2021/04/15 07:09:04;;;;;;;22.55;11.40;;;;;;;;;;6210099;23;20195;-89
2021/04/15 07:12:13;;;;;;;19.15;6.57;;;;;;;;;;6211406;23;20171;-85
2021/04/15 07:15:29;;;;;;;10.77;5.78;;;;;;;;;;6214104;22;20183;-90
2021/04/15 07:18:52;;;;;;;17.00;5.97;;;;;;;;;;6213418;23;20215;-89
2021/04/15 07:22:18;;;;;;;13.40;5.30;;;;;;;;;;6215994;22;20171;-89
2021/04/15 07:25:30;;;;;;;9.13;5.05;;;;;;;;;;6199380;22;20186;-87
2021/04/15 07:29:03;;;;;;;18.40;5.55;;;;;;;;;;6213197;22;20190;-91
2021/04/15 07:32:26;;;;;;;12.93;5.22;;;;;;;;;;6218655;22;20215;-89
2021/04/15 07:35:46;;;;;;;10.35;5.20;;;;;;;;;;6220788;23;20191;-90
2021/04/15 11:08:31;;;;;;;7.50;3.20;;;;;;;;;;6219629;22;20215;-91
2021/04/15 11:11:36;;;;;;;5.90;3.23;;;;;;;;;;6218641;23;20199;-90
2021/04/15 11:14:55;;;;;;;8.40;3.33;;;;;;;;;;6218273;22;20171;-91
2021/04/15 11:18:07;;;;;;;10.07;3.40;;;;;;;;;;6220065;22;20172;-92
2021/04/15 11:21:14;;;;;;;6.65;3.13;;;;;;;;;;6217757;23;20167;-91
2021/04/15 12:05:29;;;;;;;5.20;2.10;;;;;;;;;;6211123;22;20215;-92
2021/04/15 12:08:37;;;;;;;4.80;2.70;;;;;;;;;;6213180;23;20162;-92
2021/04/15 12:11:46;;;;;;;5.77;2.73;;;;;;;;;;6212986;22;20175;-93
2021/04/15 12:14:52;;;;;;;6.40;2.67;;;;;;;;;;6214395;23;20227;-93
2021/04/15 12:17:59;;;;;;;5.10;2.45;;;;;;;;;;6215829;23;20179;-92
2021/04/15 12:21:08;;;;;;;8.35;1.95;;;;;;;;;;6214763;22;20183;-92
2021/04/15 12:27:12;;;;;;;6.15;2.60;;;;;;;;;;6225031;22;20224;-93
2021/04/15 12:30:20;;;;;;;6.47;2.72;;;;;;;;;;6215787;22;20198;-93
2021/04/15 12:33:29;;;;;;;9.95;3.72;;;;;;;;;;6217743;23;20147;-92
2021/04/15 12:36:38;;;;;;;7.53;2.60;;;;;;;;;;6215189;22;20171;-91
2021/04/15 12:39:49;;;;;;;8.98;2.85;;;;;;;;;;6215578;22;20156;-92
2021/04/15 14:43:20;;;;;;;4.32;2.17;;;;;;;;;;6192701;22;20215;-89
2021/04/15 14:46:28;;;;;;;8.25;2.50;;;;;;;;;;6215579;22;20178;-91
2021/04/15 14:49:34;;;;;;;3.90;2.45;;;;;;;;;;6216573;22;20163;-90
2021/04/15 14:52:39;;;;;;;5.20;2.50;;;;;;;;;;6217627;22;20167;-90
2021/04/15 14:55:45;;;;;;;7.47;2.70;;;;;;;;;;6217148;23;20543;-91
2021/04/15 14:58:53;;;;;;;8.48;2.72;;;;;;;;;;6215917;23;20167;-90
2021/04/15 15:02:05;;;;;;;5.47;2.88;;;;;;;;;;6216363;23;20171;-92
2021/04/15 15:05:17;;;;;;;8.40;3.25;;;;;;;;;;6216982;22;20195;-89
2021/04/15 15:08:22;;;;;;;5.43;2.72;;;;;;;;;;6217254;22;20183;-90
2021/04/15 15:11:27;;;;;;;5.47;3.08;;;;;;;;;;6215737;23;20194;-90
2021/04/15 15:14:36;;;;;;;7.63;3.05;;;;;;;;;;6216750;23;20147;-90
2021/04/15 15:17:41;;;;;;;6.85;3.03;;;;;;;;;;6215605;22;20210;-90
2021/04/15 15:20:48;;;;;;;6.70;3.35;;;;;;;;;;6217270;22;20209;-91
2021/04/15 15:24:17;;;;;;;6.07;3.10;;;;;;;;;;6217560;22;20198;-90
2021/04/15 15:27:23;;;;;;;4.60;2.72;;;;;;;;;;6217326;22;20195;-90
2021/04/15 15:30:32;;;;;;;4.00;2.28;;;;;;;;;;6235949;22;20215;-91
2021/04/15 15:37:13;;;;;;;8.37;3.00;;;;;;;;;;6239618;22;20240;-89
2021/04/15 15:40:39;;;;;;;6.90;3.30;;;;;;;;;;6221728;22;20175;-90
2021/04/15 15:43:50;;;;;;;8.80;2.87;;;;;;;;;;6218503;23;20692;-93
2021/04/15 15:50:32;;;;;;;14.93;3.07;;;;;;;;;;6220072;23;20190;-91
2021/04/15 15:53:42;;;;;;;6.30;3.30;;;;;;;;;;6221146;22;20163;-91
2021/04/15 15:56:48;;;;;;;7.67;2.97;;;;;;;;;;6222487;23;20151;-90
2021/04/15 16:00:03;;;;;;;6.23;3.00;;;;;;;;;;6221696;23;20175;-90
2021/04/15 16:03:27;;;;;;;8.33;3.00;;;;;;;;;;6235349;22;20171;-89
2021/04/15 16:10:12;;;;;;;5.97;2.90;;;;;;;;;;6219803;22;20198;-91
2021/04/15 16:13:34;;;;;;;12.47;3.80;;;;;;;;;;6219388;22;20151;-89
2021/04/15 22:00:35;;;;;;;11.47;4.97;;;;;;;;;;6179281;22;20416;-89
2021/04/15 22:04:11;;;;;;;10.70;5.17;;;;;;;;;;6213569;22;20211;-90
2021/04/15 22:07:16;;;;;;;9.07;4.90;;;;;;;;;;6210154;23;20593;-90
2021/04/15 22:10:21;;;;;;;10.20;5.00;;;;;;;;;;6207820;23;20191;-87
2021/04/15 22:13:26;;;;;;;8.40;4.47;;;;;;;;;;6209375;23;20206;-91
2021/04/15 22:16:33;;;;;;;11.53;4.93;;;;;;;;;;6207601;23;20167;-90
2021/04/15 22:19:38;;;;;;;15.80;5.23;;;;;;;;;;6207704;23;20210;-90
2021/04/15 22:22:43;;;;;;;13.13;4.87;;;;;;;;;;6209268;23;20179;-90
2021/04/15 22:25:47;;;;;;;10.70;5.27;;;;;;;;;;6209388;23;20175;-87
2021/04/15 22:28:52;;;;;;;12.90;5.77;;;;;;;;;;6207891;23;20658;-89
2021/04/15 22:31:59;;;;;;;10.30;5.23;;;;;;;;;;6209073;23;20234;-89
2021/04/15 22:35:06;;;;;;;11.37;5.53;;;;;;;;;;6206102;23;20171;-90
2021/04/15 22:38:11;;;;;;;16.27;6.03;;;;;;;;;;6208334;23;20195;-90
2021/04/15 22:41:15;;;;;;;13.47;5.73;;;;;;;;;;6209725;23;20190;-90
2021/04/15 22:44:20;;;;;;;11.40;5.07;;;;;;;;;;6209382;23;20271;-90
2021/04/15 22:47:29;;;;;;;11.93;5.47;;;;;;;;;;6211768;23;20175;-91
2021/04/15 22:50:35;;;;;;;11.87;6.13;;;;;;;;;;6209958;23;20269;-89
2021/04/15 22:53:39;;;;;;;12.27;5.43;;;;;;;;;;6209798;23;20167;-89
2021/04/15 22:56:44;;;;;;;10.87;5.10;;;;;;;;;;6206907;23;20174;-90
2021/04/15 22:59:50;;;;;;;10.90;5.67;;;;;;;;;;6209321;23;20219;-90
2021/04/15 23:02:55;;;;;;;11.57;5.10;;;;;;;;;;6211632;23;20199;-89
2021/04/15 23:06:00;;;;;;;15.97;5.40;;;;;;;;;;6210364;23;20191;-89
2021/04/15 23:09:04;;;;;;;12.77;5.27;;;;;;;;;;6208615;23;20674;-88
2021/04/15 23:12:09;;;;;;;9.67;4.93;;;;;;;;;;6208575;23;20165;-90
2021/04/15 23:15:15;;;;;;;11.03;5.33;;;;;;;;;;6207714;23;20170;-89
2021/04/15 23:18:20;;;;;;;12.03;4.90;;;;;;;;;;6210083;22;20210;-89
2021/04/15 23:21:25;;;;;;;10.27;4.83;;;;;;;;;;6209139;23;20171;-90
2021/04/15 23:24:29;;;;;;;11.23;5.43;;;;;;;;;;6207891;23;20214;-89
2021/04/15 23:27:35;;;;;;;10.57;4.83;;;;;;;;;;6207537;23;20194;-88
2021/04/15 23:30:40;;;;;;;10.97;4.80;;;;;;;;;;6208282;23;20175;-88
2021/04/15 23:33:46;;;;;;;8.77;4.47;;;;;;;;;;6208685;23;20175;-90
2021/04/15 23:36:50;;;;;;;10.50;4.83;;;;;;;;;;6206533;23;20226;-89
2021/04/15 23:39:55;;;;;;;10.33;5.10;;;;;;;;;;6206409;23;20496;-89
2021/04/15 23:43:00;;;;;;;9.50;5.00;;;;;;;;;;6208919;23;20183;-89
2021/04/15 23:46:05;;;;;;;9.73;4.50;;;;;;;;;;6207443;23;20191;-89
2021/04/15 23:49:10;;;;;;;13.43;5.33;;;;;;;;;;6207515;23;20206;-88
2021/04/15 23:52:15;;;;;;;12.47;5.40;;;;;;;;;;6208554;23;20218;-90
2021/04/15 23:55:20;;;;;;;8.57;4.80;;;;;;;;;;6207991;23;20167;-89
2021/04/15 23:58:30;;;;;;;11.33;5.13;;;;;;;;;;6205531;23;20172;-89
